createdAt,value
2018-09-19T00:02:26.539Z,16.40
2018-09-19T00:04:55.570Z,16.40
2018-09-19T00:07:23.896Z,16.50
2018-09-19T00:09:52.244Z,16.60
2018-09-19T00:12:20.580Z,16.60
2018-09-19T00:14:48.928Z,16.60
2018-09-19T00:17:17.359Z,16.70
2018-09-19T00:19:45.662Z,16.70
2018-09-19T00:22:14.007Z,16.70
2018-09-19T00:24:43.096Z,16.70
2018-09-19T00:27:11.539Z,16.70
2018-09-19T00:29:39.869Z,16.70
2018-09-19T00:32:08.228Z,16.70
2018-09-19T00:34:36.591Z,16.70
2018-09-19T00:37:04.914Z,16.70
2018-09-19T00:39:34.006Z,16.80
2018-09-19T00:42:02.360Z,16.80
2018-09-19T00:44:30.693Z,16.70
2018-09-19T00:46:59.009Z,16.70
2018-09-19T00:49:27.424Z,16.70
2018-09-19T00:51:55.732Z,16.70
2018-09-19T00:54:24.077Z,16.60
2018-09-19T00:56:52.426Z,16.60
2018-09-19T00:59:20.787Z,16.60
2018-09-19T01:01:49.108Z,16.50
2018-09-19T01:04:17.792Z,16.50
2018-09-19T01:06:46.291Z,16.50
2018-09-19T01:09:14.641Z,16.40
2018-09-19T01:11:43.302Z,16.40
2018-09-19T01:14:11.730Z,16.40
2018-09-19T01:16:40.030Z,16.40
2018-09-19T01:19:08.495Z,16.40
2018-09-19T01:21:36.972Z,16.30
2018-09-19T01:24:05.597Z,16.30
2018-09-19T01:26:33.932Z,16.30
2018-09-19T01:29:02.273Z,16.20
2018-09-19T01:31:30.634Z,16.10
2018-09-19T01:34:05.783Z,16.10
2018-09-19T01:36:34.146Z,16.10
2018-09-19T01:39:02.506Z,16.10
2018-09-19T01:41:30.845Z,16.10
2018-09-19T01:43:59.172Z,16.00
2018-09-19T01:46:27.499Z,16.00
2018-09-19T01:48:55.875Z,16.00
2018-09-19T01:51:24.840Z,15.90
2018-09-19T01:53:53.109Z,15.90
2018-09-19T01:56:21.465Z,15.90
2018-09-19T01:58:49.806Z,15.90
2018-09-19T02:01:18.162Z,15.90
2018-09-19T02:03:46.564Z,15.90
2018-09-19T02:06:14.907Z,15.90
2018-09-19T02:08:43.975Z,15.90
2018-09-19T02:11:12.422Z,15.80
2018-09-19T02:13:40.885Z,15.80
2018-09-19T02:16:09.197Z,15.80
2018-09-19T02:18:37.543Z,15.70
2018-09-19T02:21:05.923Z,15.70
2018-09-19T02:23:34.243Z,15.70
2018-09-19T02:26:02.704Z,15.70
2018-09-19T02:28:31.114Z,15.70
2018-09-19T02:30:59.386Z,15.70
2018-09-19T02:33:27.737Z,15.70
2018-09-19T02:35:56.090Z,15.70
2018-09-19T02:38:24.422Z,15.60
2018-09-19T02:40:52.777Z,15.60
2018-09-19T02:43:21.108Z,15.60
2018-09-19T02:45:49.454Z,15.50
2018-09-19T02:48:17.777Z,15.50
2018-09-19T02:50:46.237Z,15.60
2018-09-19T02:53:14.607Z,15.50
2018-09-19T02:55:42.951Z,15.50
2018-09-19T02:58:11.351Z,15.50
2018-09-19T03:00:39.831Z,15.50
2018-09-19T03:03:08.197Z,15.50
2018-09-19T03:05:37.237Z,15.50
2018-09-19T03:08:05.584Z,15.40
2018-09-19T03:10:33.967Z,15.40
2018-09-19T03:13:02.360Z,15.40
2018-09-19T03:15:30.687Z,15.40
2018-09-19T03:17:59.008Z,15.40
2018-09-19T03:20:27.939Z,15.40
2018-09-19T03:22:56.331Z,15.30
2018-09-19T03:25:24.679Z,15.30
2018-09-19T03:27:53.583Z,15.30
2018-09-19T03:30:21.942Z,15.20
2018-09-19T03:32:50.496Z,15.20
2018-09-19T03:35:18.875Z,15.20
2018-09-19T03:37:47.179Z,15.20
2018-09-19T03:40:15.565Z,15.10
2018-09-19T03:42:43.891Z,15.10
2018-09-19T03:45:12.222Z,15.10
2018-09-19T03:47:40.891Z,15.10
2018-09-19T03:50:09.222Z,15.00
2018-09-19T03:52:37.563Z,15.00
2018-09-19T03:55:05.927Z,15.00
2018-09-19T03:57:34.324Z,15.00
2018-09-19T04:00:02.666Z,14.90
2018-09-19T04:02:30.975Z,14.80
2018-09-19T04:04:59.308Z,14.80
2018-09-19T04:07:27.698Z,14.80
2018-09-19T04:09:56.096Z,14.80
2018-09-19T04:12:24.475Z,14.80
2018-09-19T04:14:52.814Z,14.70
2018-09-19T04:17:21.158Z,14.70
2018-09-19T04:19:49.513Z,14.70
2018-09-19T04:22:18.352Z,14.70
2018-09-19T04:24:46.660Z,14.70
2018-09-19T04:29:49.727Z,14.60
2018-09-19T04:32:18.068Z,14.60
2018-09-19T04:34:46.951Z,14.60
2018-09-19T04:37:15.275Z,14.50
2018-09-19T04:39:43.610Z,14.50
2018-09-19T04:42:18.610Z,14.40
2018-09-19T04:44:46.937Z,14.40
2018-09-19T04:49:42.524Z,14.40
2018-09-19T04:52:10.845Z,14.30
2018-09-19T04:54:39.792Z,14.20
2018-09-19T04:57:08.128Z,14.20
2018-09-19T04:59:36.576Z,14.10
2018-09-19T05:02:05.039Z,14.10
2018-09-19T05:04:33.352Z,14.00
2018-09-19T05:07:01.711Z,14.00
2018-09-19T05:09:30.022Z,14.00
2018-09-19T05:11:58.411Z,14.00
2018-09-19T05:14:26.754Z,14.10
2018-09-19T05:16:55.206Z,14.10
2018-09-19T05:19:23.541Z,14.10
2018-09-19T05:21:51.910Z,14.20
2018-09-19T05:24:20.366Z,14.20
2018-09-19T05:26:48.740Z,14.20
2018-09-19T05:29:17.076Z,14.10
2018-09-19T05:31:45.506Z,14.10
2018-09-19T05:34:13.881Z,14.10
2018-09-19T05:36:42.226Z,14.10
2018-09-19T05:39:10.553Z,14.10
2018-09-19T05:41:38.866Z,14.10
2018-09-19T05:44:07.192Z,14.10
2018-09-19T05:46:35.551Z,14.10
2018-09-19T05:49:03.879Z,14.10
2018-09-19T05:51:32.239Z,14.10
2018-09-19T05:54:00.584Z,14.00
2018-09-19T05:56:29.062Z,14.00
2018-09-19T05:58:57.408Z,14.00
2018-09-19T06:01:25.849Z,14.00
2018-09-19T06:03:54.208Z,14.00
2018-09-19T06:06:22.553Z,14.10
2018-09-19T06:08:50.935Z,14.10
2018-09-19T06:11:19.304Z,14.20
2018-09-19T06:13:47.622Z,14.20
2018-09-19T06:16:16.011Z,14.30
2018-09-19T06:18:44.412Z,14.30
2018-09-19T06:21:12.795Z,14.40
2018-09-19T06:23:41.120Z,14.40
2018-09-19T06:26:09.442Z,14.40
2018-09-19T06:28:37.781Z,14.40
2018-09-19T06:31:06.357Z,14.40
2018-09-19T06:33:34.740Z,14.50
2018-09-19T06:36:03.064Z,14.50
2018-09-19T06:38:31.386Z,14.50
2018-09-19T06:40:59.837Z,14.60
2018-09-19T06:43:28.060Z,14.60
2018-09-19T06:45:56.422Z,14.60
2018-09-19T06:48:24.771Z,14.60
2018-09-19T06:50:53.792Z,14.70
2018-09-19T06:53:22.144Z,14.80
2018-09-19T06:55:50.504Z,14.80
2018-09-19T06:58:18.853Z,14.90
2018-09-19T07:00:47.519Z,14.90
2018-09-19T07:03:15.881Z,15.00
2018-09-19T07:05:44.245Z,15.10
2018-09-19T07:08:12.517Z,15.20
2018-09-19T07:10:41.662Z,15.40
2018-09-19T07:13:10.270Z,15.50
2018-09-19T07:15:39.283Z,15.60
2018-09-19T07:18:08.298Z,15.70
2018-09-19T07:20:36.617Z,15.70
2018-09-19T07:23:05.065Z,15.80
2018-09-19T07:25:33.413Z,15.90
2018-09-19T07:28:01.747Z,16.00
2018-09-19T07:30:30.123Z,16.10
2018-09-19T07:32:58.578Z,16.20
2018-09-19T07:35:26.995Z,16.40
2018-09-19T07:37:55.359Z,16.40
2018-09-19T07:40:24.540Z,16.50
2018-09-19T07:42:52.859Z,16.60
2018-09-19T07:45:21.233Z,16.70
2018-09-19T07:47:49.613Z,16.80
2018-09-19T07:50:17.975Z,16.90
2018-09-19T07:52:46.387Z,17.00
2018-09-19T07:55:16.360Z,17.10
2018-09-19T07:57:45.012Z,17.20
2018-09-19T08:00:13.379Z,17.30
2018-09-19T08:02:41.705Z,17.40
2018-09-19T08:05:10.471Z,17.50
2018-09-19T08:07:38.876Z,17.60
2018-09-19T08:10:07.357Z,17.80
2018-09-19T08:12:35.710Z,17.90
2018-09-19T08:15:04.084Z,18.00
2018-09-19T08:17:32.419Z,18.20
2018-09-19T08:20:00.733Z,18.20
2018-09-19T08:22:29.140Z,18.40
2018-09-19T08:24:57.453Z,18.50
2018-09-19T08:27:25.883Z,18.70
2018-09-19T08:29:54.253Z,18.80
2018-09-19T08:32:22.581Z,18.90
2018-09-19T08:34:50.892Z,19.00
2018-09-19T08:37:20.091Z,19.20
2018-09-19T08:39:48.414Z,19.30
2018-09-19T08:42:16.850Z,19.40
2018-09-19T08:44:45.208Z,19.50
2018-09-19T08:47:13.531Z,19.60
2018-09-19T08:49:41.982Z,19.70
2018-09-19T08:52:10.473Z,19.90
2018-09-19T08:54:38.785Z,20.00
2018-09-19T08:57:07.865Z,20.20
2018-09-19T08:59:36.586Z,20.30
2018-09-19T09:02:04.933Z,20.50
2018-09-19T09:04:34.017Z,20.60
2018-09-19T09:07:02.414Z,20.70
2018-09-19T09:09:30.799Z,20.90
2018-09-19T09:11:59.174Z,21.00
2018-09-19T09:14:27.585Z,21.10
2018-09-19T09:16:55.899Z,21.20
2018-09-19T09:19:24.232Z,21.30
2018-09-19T09:21:53.292Z,21.50
2018-09-19T09:24:21.637Z,21.60
2018-09-19T09:26:50.179Z,21.80
2018-09-19T09:29:19.012Z,21.90
2018-09-19T09:31:47.319Z,22.10
2018-09-19T09:34:15.701Z,22.30
2018-09-19T09:36:44.076Z,22.40
2018-09-19T09:39:12.405Z,22.60
2018-09-19T09:41:44.023Z,22.70
2018-09-19T09:44:12.442Z,22.80
2018-09-19T09:46:47.165Z,23.00
2018-09-19T09:49:15.575Z,23.10
2018-09-19T09:51:43.928Z,23.30
2018-09-19T09:54:12.269Z,23.50
2018-09-19T09:56:40.601Z,23.60
2018-09-19T09:59:08.925Z,23.70
2018-09-19T10:01:37.287Z,23.90
2018-09-19T10:04:14.407Z,24.10
2018-09-19T10:06:42.762Z,24.20
2018-09-19T10:09:11.461Z,24.40
2018-09-19T10:11:39.814Z,24.60
2018-09-19T10:14:08.163Z,24.80
2018-09-19T10:16:36.532Z,24.90
2018-09-19T10:19:05.013Z,25.00
2018-09-19T10:21:33.410Z,25.00
2018-09-19T10:24:01.789Z,24.80
2018-09-19T10:26:30.201Z,24.80
2018-09-19T10:28:58.528Z,24.60
2018-09-19T10:31:26.978Z,24.50
2018-09-19T10:33:55.356Z,24.50
2018-09-19T10:36:23.764Z,24.50
2018-09-19T10:38:52.109Z,24.40
2018-09-19T10:41:21.087Z,24.30
2018-09-19T10:43:49.535Z,24.40
2018-09-19T10:46:17.859Z,24.50
2018-09-19T10:48:46.738Z,24.70
2018-09-19T10:51:15.244Z,25.00
2018-09-19T10:53:43.611Z,25.30
2018-09-19T10:56:12.141Z,25.50
2018-09-19T10:58:41.323Z,25.80
2018-09-19T11:01:09.688Z,26.00
2018-09-19T11:03:38.067Z,26.20
2018-09-19T11:06:06.443Z,26.50
2018-09-19T11:08:34.817Z,26.50
2018-09-19T11:11:03.245Z,26.60
2018-09-19T11:13:31.623Z,26.90
2018-09-19T11:16:00.002Z,26.90
2018-09-19T11:18:28.345Z,26.90
2018-09-19T11:20:57.289Z,26.90
2018-09-19T11:23:25.646Z,26.90
2018-09-19T11:25:53.998Z,27.10
2018-09-19T11:28:22.448Z,27.20
2018-09-19T11:30:50.857Z,27.20
2018-09-19T11:33:19.206Z,27.30
2018-09-19T11:35:47.711Z,27.40
2018-09-19T11:38:16.061Z,27.50
2018-09-19T11:40:44.419Z,27.30
2018-09-19T11:43:12.777Z,27.40
2018-09-19T11:45:41.129Z,27.70
2018-09-19T11:48:09.486Z,28.10
2018-09-19T11:50:37.801Z,28.10
2018-09-19T11:53:10.431Z,28.10
2018-09-19T11:55:38.755Z,28.10
2018-09-19T11:58:07.092Z,28.10
2018-09-19T12:00:35.445Z,27.90
2018-09-19T12:03:03.809Z,28.10
2018-09-19T12:05:32.185Z,28.30
2018-09-19T12:08:00.583Z,28.40
2018-09-19T12:10:28.904Z,28.10
2018-09-19T12:12:57.265Z,28.10
2018-09-19T12:15:25.635Z,28.40
2018-09-19T12:17:53.979Z,28.40
2018-09-19T12:20:22.297Z,28.60
2018-09-19T12:22:51.509Z,28.60
2018-09-19T12:25:19.863Z,28.60
2018-09-19T12:27:48.204Z,28.60
2018-09-19T12:30:16.538Z,29.10
2018-09-19T12:32:44.995Z,29.30
2018-09-19T12:35:13.479Z,29.10
2018-09-19T12:37:41.838Z,29.10
2018-09-19T12:40:10.201Z,29.10
2018-09-19T12:42:39.179Z,28.80
2018-09-19T12:45:07.587Z,28.80
2018-09-19T12:47:35.947Z,28.70
2018-09-19T12:50:04.406Z,28.80
2018-09-19T12:52:33.244Z,28.90
2018-09-19T12:55:01.649Z,29.00
2018-09-19T12:57:29.972Z,28.90
2018-09-19T12:59:58.317Z,29.00
2018-09-19T13:02:26.689Z,29.10
2018-09-19T13:04:55.129Z,29.10
2018-09-19T13:07:23.522Z,29.20
2018-09-19T13:09:52.594Z,29.20
2018-09-19T13:12:20.956Z,29.40
2018-09-19T13:14:49.462Z,29.30
2018-09-19T13:17:17.833Z,29.50
2018-09-19T13:19:46.260Z,29.50
2018-09-19T13:22:14.595Z,29.60
2018-09-19T13:24:42.929Z,29.70
2018-09-19T13:27:11.744Z,29.70
2018-09-19T13:29:40.069Z,29.90
2018-09-19T13:32:08.442Z,29.80
2018-09-19T13:34:36.755Z,29.50
2018-09-19T13:37:05.102Z,29.10
2018-09-19T13:39:33.484Z,28.90
2018-09-19T13:42:01.848Z,29.00
2018-09-19T13:44:30.212Z,29.10
2018-09-19T13:46:58.575Z,29.20
2018-09-19T13:49:33.316Z,29.50
2018-09-19T13:52:01.664Z,29.40
2018-09-19T13:54:30.016Z,29.50
2018-09-19T13:56:58.430Z,29.50
2018-09-19T13:59:26.919Z,29.70
2018-09-19T14:01:59.240Z,29.50
2018-09-19T14:04:27.629Z,29.70
2018-09-19T14:06:56.072Z,29.70
2018-09-19T14:09:24.522Z,29.90
2018-09-19T14:11:52.838Z,29.80
2018-09-19T14:14:21.195Z,29.60
2018-09-19T14:16:49.984Z,29.90
2018-09-19T14:19:19.420Z,29.80
2018-09-19T14:21:47.807Z,29.60
2018-09-19T14:24:16.495Z,29.70
2018-09-19T14:26:44.846Z,29.80
2018-09-19T14:29:13.181Z,29.70
2018-09-19T14:31:42.431Z,29.60
2018-09-19T14:34:12.565Z,29.50
2018-09-19T14:36:41.115Z,29.80
2018-09-19T14:39:09.518Z,29.80
2018-09-19T14:41:37.905Z,29.80
2018-09-19T14:44:07.647Z,29.80
2018-09-19T14:46:36.002Z,30.10
2018-09-19T14:49:04.379Z,30.10
2018-09-19T14:51:32.840Z,30.30
2018-09-19T14:54:01.208Z,30.10
2018-09-19T14:56:30.127Z,29.70
2018-09-19T14:58:58.493Z,29.80
2018-09-19T15:01:26.831Z,29.90
2018-09-19T15:03:55.167Z,30.10
2018-09-19T15:06:23.593Z,29.90
2018-09-19T15:08:51.939Z,29.90
2018-09-19T15:11:20.842Z,29.80
2018-09-19T15:13:49.221Z,29.50
2018-09-19T15:16:17.607Z,29.40
2018-09-19T15:18:45.973Z,29.50
2018-09-19T15:21:14.317Z,30.00
2018-09-19T15:23:42.655Z,29.90
2018-09-19T15:26:10.984Z,29.70
2018-09-19T15:28:40.155Z,29.70
2018-09-19T15:31:08.515Z,29.60
2018-09-19T15:33:37.551Z,29.30
2018-09-19T15:36:06.160Z,29.30
2018-09-19T15:38:34.507Z,29.30
2018-09-19T15:41:03.636Z,29.40
2018-09-19T15:43:32.104Z,29.40
2018-09-19T15:46:01.533Z,29.60
2018-09-19T15:48:30.026Z,29.40
2018-09-19T15:50:58.297Z,29.30
2018-09-19T15:53:30.638Z,29.20
2018-09-19T15:55:59.312Z,29.40
2018-09-19T15:58:27.701Z,29.20
2018-09-19T16:00:56.038Z,29.20
2018-09-19T16:03:24.964Z,29.30
2018-09-19T16:05:53.371Z,29.20
2018-09-19T16:08:21.734Z,28.80
2018-09-19T16:10:50.096Z,28.70
2018-09-19T16:13:18.457Z,28.50
2018-09-19T16:15:46.876Z,28.50
2018-09-19T16:18:15.230Z,28.50
2018-09-19T16:20:44.057Z,28.50
2018-09-19T16:23:12.376Z,28.40
2018-09-19T16:25:40.808Z,28.30
2018-09-19T16:28:09.126Z,28.30
2018-09-19T16:30:37.480Z,28.30
2018-09-19T16:33:05.916Z,28.10
2018-09-19T16:35:34.239Z,28.20
2018-09-19T16:38:03.326Z,28.10
2018-09-19T16:40:31.662Z,28.10
2018-09-19T16:43:00.006Z,27.90
2018-09-19T16:45:28.458Z,27.90
2018-09-19T16:47:56.706Z,27.80
2018-09-19T16:50:25.041Z,27.70
2018-09-19T16:52:53.543Z,27.60
2018-09-19T16:55:21.863Z,27.50
2018-09-19T16:57:51.490Z,27.50
2018-09-19T17:00:19.853Z,27.30
2018-09-19T17:02:48.199Z,27.10
2018-09-19T17:05:16.671Z,27.00
2018-09-19T17:07:45.040Z,26.90
2018-09-19T17:10:13.463Z,26.80
2018-09-19T17:12:41.816Z,26.80
2018-09-19T17:15:10.212Z,26.70
2018-09-19T17:17:38.558Z,26.60
2018-09-19T17:20:07.228Z,26.40
2018-09-19T17:22:35.684Z,26.20
2018-09-19T17:25:04.077Z,26.00
2018-09-19T17:27:32.484Z,25.80
2018-09-19T17:30:00.811Z,25.60
2018-09-19T17:32:29.190Z,25.40
2018-09-19T17:34:58.105Z,25.20
2018-09-19T17:37:26.478Z,25.10
2018-09-19T17:39:54.838Z,25.00
2018-09-19T17:42:23.275Z,24.80
2018-09-19T17:44:51.620Z,24.70
2018-09-19T17:47:19.987Z,24.60
2018-09-19T17:49:48.478Z,24.40
2018-09-19T17:52:16.831Z,24.40
2018-09-19T17:54:45.240Z,24.20
2018-09-19T17:57:13.640Z,24.10
2018-09-19T17:59:41.990Z,24.10
2018-09-19T18:02:10.351Z,24.00
2018-09-19T18:04:38.756Z,23.80
2018-09-19T18:07:07.135Z,23.80
2018-09-19T18:09:36.180Z,23.70
2018-09-19T18:12:04.540Z,23.60
2018-09-19T18:14:32.871Z,23.60
2018-09-19T18:17:01.224Z,23.50
2018-09-19T18:19:29.581Z,23.40
2018-09-19T18:21:57.953Z,23.30
2018-09-19T18:24:26.334Z,23.20
2018-09-19T18:26:54.707Z,23.10
2018-09-19T18:29:23.045Z,22.90
2018-09-19T18:31:51.528Z,22.80
2018-09-19T18:34:20.157Z,22.70
2018-09-19T18:36:48.515Z,22.70
2018-09-19T18:39:16.868Z,22.70
2018-09-19T18:41:45.267Z,22.60
2018-09-19T18:44:13.696Z,22.60
2018-09-19T18:46:42.440Z,22.60
2018-09-19T18:49:10.877Z,22.50
2018-09-19T18:51:39.221Z,22.40
2018-09-19T18:54:08.261Z,22.40
2018-09-19T18:56:36.825Z,22.30
2018-09-19T18:59:05.208Z,22.20
2018-09-19T19:01:33.788Z,22.10
2018-09-19T19:04:02.076Z,22.00
2018-09-19T19:06:30.421Z,22.00
2018-09-19T19:08:58.787Z,21.90
2018-09-19T19:11:27.151Z,21.80
2018-09-19T19:13:55.564Z,21.80
2018-09-19T19:16:23.946Z,21.70
2018-09-19T19:18:52.359Z,21.60
2018-09-19T19:21:20.649Z,21.50
2018-09-19T19:23:55.565Z,21.50
2018-09-19T19:26:23.997Z,21.40
2018-09-19T19:28:52.341Z,21.30
2018-09-19T19:31:20.713Z,21.20
2018-09-19T19:33:49.069Z,21.10
2018-09-19T19:36:17.457Z,21.00
2018-09-19T19:38:45.917Z,20.90
2018-09-19T19:41:14.416Z,20.90
2018-09-19T19:43:42.780Z,20.80
2018-09-19T19:46:11.153Z,20.80
2018-09-19T19:48:39.556Z,20.70
2018-09-19T19:51:07.964Z,20.70
2018-09-19T19:53:36.340Z,20.60
2018-09-19T19:56:04.735Z,20.50
2018-09-19T19:58:33.084Z,20.50
2018-09-19T20:01:01.464Z,20.40
2018-09-19T20:03:29.952Z,20.30
2018-09-19T20:05:58.288Z,20.30
2018-09-19T20:08:26.642Z,20.20
2018-09-19T20:10:55.003Z,20.20
2018-09-19T20:13:23.624Z,20.20
2018-09-19T20:15:51.993Z,20.20
2018-09-19T20:18:20.351Z,20.10
2018-09-19T20:20:48.741Z,20.10
2018-09-19T20:23:17.137Z,20.00
2018-09-19T20:25:45.556Z,20.00
2018-09-19T20:28:13.941Z,19.90
2018-09-19T20:30:42.312Z,19.90
2018-09-19T20:33:10.670Z,19.80
2018-09-19T20:35:39.023Z,19.80
2018-09-19T20:38:07.396Z,19.80
2018-09-19T20:40:35.742Z,19.70
2018-09-19T20:43:04.122Z,19.70
2018-09-19T20:45:32.521Z,19.60
2018-09-19T20:48:00.852Z,19.50
2018-09-19T20:50:29.231Z,19.50
2018-09-19T20:52:57.644Z,19.50
2018-09-19T20:55:26.716Z,19.40
2018-09-19T20:57:55.081Z,19.30
2018-09-19T21:00:23.436Z,19.30
2018-09-19T21:02:51.815Z,19.40
2018-09-19T21:05:20.173Z,19.40
2018-09-19T21:07:48.575Z,19.30
2018-09-19T21:10:17.012Z,19.30
2018-09-19T21:12:45.376Z,19.30
2018-09-19T21:15:13.764Z,19.20
2018-09-19T21:17:42.102Z,19.20
2018-09-19T21:20:10.436Z,19.10
2018-09-19T21:22:38.839Z,19.10
2018-09-19T21:25:07.168Z,19.10
2018-09-19T21:27:35.560Z,19.00
2018-09-19T21:30:04.007Z,18.90
2018-09-19T21:32:32.368Z,18.80
2018-09-19T21:35:00.724Z,18.80
2018-09-19T21:37:29.325Z,18.70
2018-09-19T21:39:57.795Z,18.70
2018-09-19T21:42:26.261Z,18.60
2018-09-19T21:44:54.584Z,18.60
2018-09-19T21:47:22.942Z,18.50
2018-09-19T21:49:51.282Z,18.50
2018-09-19T21:52:19.611Z,18.50
2018-09-19T21:54:48.068Z,18.50
2018-09-19T21:57:16.420Z,18.50
2018-09-19T21:59:44.851Z,18.50
2018-09-19T22:02:15.193Z,18.40
2018-09-19T22:04:43.540Z,18.40
2018-09-19T22:07:11.869Z,18.20
2018-09-19T22:09:40.246Z,18.10
2018-09-19T22:12:10.192Z,18.10
2018-09-19T22:14:39.599Z,18.10
2018-09-19T22:17:08.024Z,18.00
2018-09-19T22:19:36.537Z,18.00
2018-09-19T22:22:04.961Z,17.90
2018-09-19T22:24:33.751Z,17.90
2018-09-19T22:27:08.717Z,17.80
2018-09-19T22:29:37.061Z,17.80
2018-09-19T22:32:05.517Z,17.60
2018-09-19T22:34:33.845Z,17.50
2018-09-19T22:37:02.235Z,17.50
2018-09-19T22:39:30.565Z,17.50
2018-09-19T22:41:58.940Z,17.40
2018-09-19T22:44:28.099Z,17.40
2018-09-19T22:46:56.417Z,17.50
2018-09-19T22:49:24.763Z,17.50
2018-09-19T22:51:53.099Z,17.50
2018-09-19T22:54:21.428Z,17.50
2018-09-19T22:56:49.852Z,17.50
2018-09-19T22:59:18.171Z,17.50
2018-09-19T23:01:47.206Z,17.40
2018-09-19T23:04:15.619Z,17.40
2018-09-19T23:06:43.969Z,17.30
2018-09-19T23:09:12.407Z,17.30
2018-09-19T23:11:40.730Z,17.20
2018-09-19T23:14:09.081Z,17.10
2018-09-19T23:16:37.413Z,17.10
2018-09-19T23:19:05.799Z,17.10
2018-09-19T23:21:34.165Z,17.10
2018-09-19T23:24:02.508Z,17.10
2018-09-19T23:26:30.928Z,17.10
2018-09-19T23:28:59.288Z,17.10
2018-09-19T23:31:27.694Z,17.10
2018-09-19T23:33:56.019Z,17.10
2018-09-19T23:36:24.351Z,17.10
2018-09-19T23:38:52.718Z,17.00
2018-09-19T23:41:21.131Z,17.00
2018-09-19T23:43:49.595Z,17.00
2018-09-19T23:46:18.119Z,16.90
2018-09-19T23:48:46.447Z,16.90
2018-09-19T23:51:15.808Z,16.80
2018-09-19T23:53:44.155Z,16.80
2018-09-19T23:56:12.507Z,16.80
2018-09-19T23:58:41.025Z,16.80
